Windleblo — WDE9900 — position and weather

sailwx.info

Track history (hours):
 
Tides and Currents Weather Stations Pressure Air Temp Water Temp Dewpoint Dewpoint Depression Visibility Wind Speed Wind Dir Waves Ship Positions

Windleblo

Owner: Hoopes, John, Golden, CO. More information available from US FCC via Universal Licensing System and Coast Guard Vessel Documentation Center.

Last reported at 2015-May-18 13:31 UTC. Time now 2015-May-25 13:37 UTC.
Position N 40°47' W 073°59'.

Type: Pleasure craft. MMSI: 367422620.

Date/timePositionNaut miles runAvg speedWind from/ knotsBaromVisibWave heightAir tempDewpointWater temp
2015-May-18 13:31N 40°47' W 073°59'5 5.4
2015-May-18 12:33N 40°43' W 074°02'2 1.7
2015-May-18 11:33N 40°41' W 074°03'7 6.9
2015-May-18 10:33N 40°34' W 074°01'42 6.7
2015-May-18 04:23N 39°53' W 074°00'5 6.2
2015-May-18 03:33N 39°48' W 074°02'6 6.5
2015-May-18 02:33N 39°41' W 074°04'6 5.9
2015-May-18 01:32N 39°36' W 074°07'58 5.8
2015-May-17 15:33N 38°53' W 074°57'15 7.4
2015-May-17 13:33N 39°04' W 075°10'5 5.4
2015-May-17 12:33N 39°08' W 075°14'5 5.0
2015-May-17 11:32N 39°13' W 075°18'5 5.5
2015-May-17 10:33N 39°17' W 075°22'7 7.3
2015-May-17 09:33N 39°22' W 075°28'8 7.9
2015-May-17 08:33N 39°29' W 075°34'5 4.7
2015-May-17 07:31N 39°34' W 075°34'0 0.0
2015-May-16 22:33N 39°34' W 075°33'9 8.9
2015-May-16 21:33N 39°32' W 075°45'8 7.9
2015-May-16 20:33N 39°30' W 075°55'8 7.5
2015-May-16 19:31N 39°25' W 076°02'5 5.6
2015-May-16 18:33N 39°22' W 076°08'  
Track history (hours):
 
Tides and Currents Weather Stations Pressure Air Temp Water Temp Dewpoint Dewpoint Depression Visibility Wind Speed Wind Dir Waves Ship Positions

Windleblo

Owner: Hoopes, John, Golden, CO. More information available from US FCC via Universal Licensing System and Coast Guard Vessel Documentation Center.

Last reported at 2015-May-18 13:31 UTC. Time now 2015-May-25 13:37 UTC.
Position N 40°47' W 073°59'.

Type: Pleasure craft. MMSI: 367422620.

Date/timePositionNaut miles runAvg speedWind from/ knotsBaromVisibWave heightAir tempDewpointWater temp
2015-May-18 13:31N 40°47' W 073°59'5 5.4
2015-May-18 12:33N 40°43' W 074°02'2 1.7
2015-May-18 11:33N 40°41' W 074°03'7 6.9
2015-May-18 10:33N 40°34' W 074°01'42 6.7
2015-May-18 04:23N 39°53' W 074°00'5 6.2
2015-May-18 03:33N 39°48' W 074°02'6 6.5
2015-May-18 02:33N 39°41' W 074°04'6 5.9
2015-May-18 01:32N 39°36' W 074°07'58 5.8
2015-May-17 15:33N 38°53' W 074°57'15 7.4
2015-May-17 13:33N 39°04' W 075°10'5 5.4
2015-May-17 12:33N 39°08' W 075°14'5 5.0
2015-May-17 11:32N 39°13' W 075°18'5 5.5
2015-May-17 10:33N 39°17' W 075°22'7 7.3
2015-May-17 09:33N 39°22' W 075°28'8 7.9
2015-May-17 08:33N 39°29' W 075°34'5 4.7
2015-May-17 07:31N 39°34' W 075°34'0 0.0
2015-May-16 22:33N 39°34' W 075°33'9 8.9
2015-May-16 21:33N 39°32' W 075°45'8 7.9
2015-May-16 20:33N 39°30' W 075°55'8 7.5
2015-May-16 19:31N 39°25' W 076°02'5 5.6
2015-May-16 18:33N 39°22' W 076°08'  

Dump ship's entire track history